Time;durP1;ratioP1;P1;durP2;ratioP2;P2;SDS_P1;SDS_P2;PMS_P1;PMS_P2;Temp;Humidity;BMP_temperature;BMP_pressure;BME280_temperature;BME280_humidity;BME280_pressure;Samples;Min_cycle;Max_cycle;Signal;HPM_P1;HPM_P2
2021/01/06 00:00:39;;;;;;;6.07;5.57;;;;;;;12.20;nan;101037.09;4977692;28;97638;-71
2021/01/06 00:03:06;;;;;;;6.47;5.78;;;;;;;12.13;nan;101040.22;4976850;28;97503;-71
2021/01/06 00:05:56;;;;;;;5.55;5.05;;;;;;;12.07;nan;101037.28;4974106;28;99586;-71
2021/01/06 00:08:24;;;;;;;6.10;5.50;;;;;;;12.01;nan;101034.34;4977138;28;97287;-71
2021/01/06 00:11:10;;;;;;;6.65;5.80;;;;;;;12.00;nan;101036.91;4979422;28;97034;-70
2021/01/06 00:13:38;;;;;;;6.60;5.88;;;;;;;11.90;nan;101040.78;4977969;28;97985;-72
2021/01/06 00:16:06;;;;;;;6.75;5.72;;;;;;;11.92;nan;101040.84;4979229;28;98111;-71
2021/01/06 00:18:34;;;;;;;6.82;6.15;;;;;;;11.86;nan;101033.53;4977719;28;98443;-69
2021/01/06 00:21:02;;;;;;;6.60;6.00;;;;;;;11.86;nan;101033.53;4978160;28;97121;-71
2021/01/06 00:23:30;;;;;;;8.00;7.20;;;;;;;11.96;nan;101027.94;4977348;28;97281;-68
2021/01/06 00:25:58;;;;;;;8.23;6.15;;;;;;;11.91;nan;101034.72;4978342;28;97862;-69
2021/01/06 00:28:25;;;;;;;9.03;7.33;;;;;;;11.99;nan;101021.91;4977418;28;97967;-71
2021/01/06 00:30:55;;;;;;;5.85;5.35;;;;;;;11.96;nan;101024.41;4977426;28;98925;-71
2021/01/06 00:33:24;;;;;;;7.32;6.63;;;;;;;12.08;nan;101032.91;4960394;28;97700;-71
2021/01/06 00:35:53;;;;;;;6.10;5.60;;;;;;;12.01;nan;101023.81;4978141;28;101613;-72
2021/01/06 00:38:25;;;;;;;10.70;5.63;;;;;;;11.95;nan;101023.47;4977553;28;98173;-72
2021/01/06 00:40:52;;;;;;;5.82;5.22;;;;;;;11.93;nan;101022.50;4978950;28;97486;-70
2021/01/06 00:43:20;;;;;;;6.18;5.57;;;;;;;11.91;nan;101013.66;4978526;28;97777;-70
2021/01/06 00:45:47;;;;;;;5.65;5.15;;;;;;;11.92;nan;101027.69;4960826;28;101756;-69
2021/01/06 00:48:15;;;;;;;7.57;6.85;;;;;;;11.96;nan;101011.22;4957925;28;100794;-69
2021/01/06 00:50:43;;;;;;;6.68;5.43;;;;;;;11.86;nan;101015.13;4961717;28;97377;-70
2021/01/06 00:53:14;;;;;;;5.95;5.30;;;;;;;11.83;nan;101006.16;4977053;28;97891;-71
2021/01/06 00:56:01;;;;;;;6.60;5.57;;;;;;;11.79;nan;101014.72;4977156;28;99178;-72
2021/01/06 00:58:32;;;;;;;6.47;5.97;;;;;;;11.81;nan;101013.97;4963912;28;99265;-70
2021/01/06 01:01:18;;;;;;;5.35;4.85;;;;;;;11.78;nan;101012.91;4981375;28;97774;-70
2021/01/06 01:03:46;;;;;;;6.45;5.85;;;;;;;11.77;nan;101008.50;4964521;28;97728;-71
2021/01/06 01:06:22;;;;;;;5.68;5.18;;;;;;;11.73;nan;101010.03;4962424;28;98008;-71
2021/01/06 01:08:50;;;;;;;6.47;5.00;;;;;;;11.76;nan;101004.94;4964728;28;99298;-71
2021/01/06 01:11:21;;;;;;;7.82;5.65;;;;;;;11.80;nan;100998.13;4965189;28;97488;-70
2021/01/06 01:13:50;;;;;;;6.40;4.93;;;;;;;11.78;nan;100994.50;4982280;28;97694;-71
2021/01/06 01:16:18;;;;;;;5.63;5.22;;;;;;;11.75;nan;100992.59;4980287;28;98153;-70
2021/01/06 01:18:45;;;;;;;6.35;5.75;;;;;;;11.71;nan;100992.38;4981038;28;98044;-72
2021/01/06 01:21:17;;;;;;;5.43;4.93;;;;;;;11.68;nan;100993.13;4981562;28;97499;-71
2021/01/06 01:23:45;;;;;;;6.63;6.03;;;;;;;11.70;nan;100990.56;4982619;28;97837;-70
2021/01/06 01:26:12;;;;;;;7.28;5.80;;;;;;;11.76;nan;100991.78;4979957;28;98083;-70
2021/01/06 01:28:41;;;;;;;6.25;5.20;;;;;;;11.75;nan;100987.34;4962440;28;96774;-71
2021/01/06 01:31:08;;;;;;;6.68;5.05;;;;;;;11.76;nan;100990.88;4981367;28;97818;-70
2021/01/06 01:33:35;;;;;;;4.93;4.53;;;;;;;11.75;nan;100986.47;4982557;28;96836;-71
2021/01/06 01:36:03;;;;;;;5.78;4.88;;;;;;;11.74;nan;100987.25;4981676;28;98122;-71
2021/01/06 01:38:31;;;;;;;5.75;5.15;;;;;;;11.73;nan;100983.72;4981152;28;98052;-70
2021/01/06 01:41:01;;;;;;;5.60;5.10;;;;;;;11.75;nan;100971.53;4981493;28;97981;-71
2021/01/06 01:43:29;;;;;;;5.75;5.18;;;;;;;11.74;nan;100980.28;4962951;28;97151;-70
2021/01/06 01:46:32;;;;;;;4.90;4.50;;;;;;;11.72;nan;100971.41;4982022;28;99536;-70
2021/01/06 01:49:01;;;;;;;5.30;4.88;;;;;;;11.69;nan;100966.00;4948646;28;98278;-70
2021/01/06 01:51:35;;;;;;;5.35;4.95;;;;;;;11.69;nan;100965.06;4980376;28;96960;-70
2021/01/06 01:54:05;;;;;;;5.47;4.95;;;;;;;11.67;nan;100962.38;4982080;28;97258;-70
2021/01/06 01:56:38;;;;;;;4.93;4.53;;;;;;;11.67;nan;100970.28;4960535;28;97738;-71
2021/01/06 01:59:12;;;;;;;5.20;4.65;;;;;;;11.66;nan;100964.94;4979148;28;97172;-71
2021/01/06 02:01:40;;;;;;;5.22;4.78;;;;;;;11.65;nan;100964.03;4981835;28;97588;-70
2021/01/06 02:04:12;;;;;;;5.05;4.65;;;;;;;11.63;nan;100955.09;4962484;28;97806;-71
2021/01/06 02:06:45;;;;;;;5.20;4.75;;;;;;;11.65;nan;100953.50;4962101;28;98867;-68
2021/01/06 02:09:16;;;;;;;5.32;4.90;;;;;;;11.65;nan;100961.38;4980696;28;97960;-70
2021/01/06 02:11:47;;;;;;;6.43;5.90;;;;;;;11.61;nan;100958.47;4981490;28;97201;-70
2021/01/06 02:14:16;;;;;;;5.38;4.88;;;;;;;11.61;nan;100956.75;4962528;28;97348;-68
2021/01/06 02:16:49;;;;;;;5.10;4.60;;;;;;;11.57;nan;100960.03;4963630;28;100797;-71
2021/01/06 02:19:18;;;;;;;5.25;4.75;;;;;;;11.56;nan;100953.00;4980534;28;97682;-68
2021/01/06 02:21:47;;;;;;;5.13;4.72;;;;;;;11.54;nan;100964.25;4962695;28;98021;-69
2021/01/06 02:24:15;;;;;;;5.70;5.20;;;;;;;11.53;nan;100952.81;4980490;28;98341;-70
2021/01/06 02:26:42;;;;;;;5.78;5.30;;;;;;;11.54;nan;100956.34;4981933;28;97880;-73
2021/01/06 02:29:10;;;;;;;5.80;5.20;;;;;;;11.59;nan;100958.41;4962285;28;97558;-73
2021/01/06 02:31:38;;;;;;;6.57;5.60;;;;;;;11.57;nan;100952.16;4980678;28;97556;-70
2021/01/06 02:34:05;;;;;;;5.15;4.75;;;;;;;11.55;nan;100953.78;4963068;28;98173;-70
2021/01/06 02:36:33;;;;;;;6.25;5.57;;;;;;;11.56;nan;100947.72;4962479;28;99254;-68
2021/01/06 02:39:01;;;;;;;5.38;4.88;;;;;;;11.57;nan;100949.50;4979575;28;99008;-71
2021/01/06 02:41:29;;;;;;;5.47;4.97;;;;;;;11.60;nan;100941.81;4963218;28;97063;-71
2021/01/06 02:43:57;;;;;;;5.32;4.78;;;;;;;11.62;nan;100936.63;4981656;28;97495;-70
2021/01/06 02:46:26;;;;;;;6.00;4.97;;;;;;;11.59;nan;100937.34;4979045;28;97842;-71
2021/01/06 02:48:54;;;;;;;5.72;5.20;;;;;;;11.57;nan;100925.84;4978728;28;99447;-68
2021/01/06 02:51:25;;;;;;;5.65;4.97;;;;;;;11.56;nan;100931.94;4981263;28;97201;-70
2021/01/06 02:53:56;;;;;;;6.10;5.50;;;;;;;11.56;nan;100926.69;4980529;28;97883;-70
2021/01/06 02:56:26;;;;;;;7.15;5.25;;;;;;;11.59;nan;100926.81;4962001;28;97859;-71
2021/01/06 02:59:13;;;;;;;5.35;4.85;;;;;;;11.59;nan;100921.56;4979661;28;97061;-70
2021/01/06 03:01:43;;;;;;;5.97;5.43;;;;;;;11.59;nan;100926.81;4977087;28;98713;-70
2021/01/06 03:04:15;;;;;;;6.15;5.47;;;;;;;11.58;nan;100929.38;4981176;28;96979;-69
2021/01/06 03:06:46;;;;;;;4.97;4.57;;;;;;;11.58;nan;100930.28;4977338;28;98195;-70
2021/01/06 03:09:32;;;;;;;5.15;4.80;;;;;;;11.57;nan;100928.47;4979060;28;99227;-71
2021/01/06 03:12:23;;;;;;;4.72;4.43;;;;;;;11.58;nan;100924.13;4980271;28;97514;-70
2021/01/06 03:14:51;;;;;;;5.53;5.03;;;;;;;11.59;nan;100921.56;4979944;28;96888;-71
2021/01/06 03:17:23;;;;;;;4.85;4.30;;;;;;;11.62;nan;100921.75;4979761;28;97974;-69
2021/01/06 03:19:53;;;;;;;5.15;4.75;;;;;;;11.59;nan;100915.38;4978616;28;101345;-72
2021/01/06 03:22:22;;;;;;;5.18;4.35;;;;;;;11.60;nan;100917.22;4981354;28;98001;-72
2021/01/06 03:24:54;;;;;;;4.70;4.40;;;;;;;11.60;nan;100922.47;4978847;28;97479;-72
2021/01/06 03:27:24;;;;;;;5.03;4.57;;;;;;;11.61;nan;100914.66;4978874;28;97578;-71
2021/01/06 03:29:53;;;;;;;4.65;4.22;;;;;;;11.61;nan;100908.47;4980241;28;97943;-71
2021/01/06 03:32:25;;;;;;;5.50;4.97;;;;;;;11.62;nan;100908.59;4981561;28;98102;-70
2021/01/06 03:34:58;;;;;;;6.10;4.35;;;;;;;11.60;nan;100907.59;4980141;28;97245;-72
2021/01/06 03:37:31;;;;;;;4.55;4.25;;;;;;;11.60;nan;100906.69;4979298;28;98114;-72
2021/01/06 03:40:06;;;;;;;5.20;4.63;;;;;;;11.60;nan;100911.94;4961476;28;98155;-70
2021/01/06 03:42:35;;;;;;;4.32;4.03;;;;;;;11.56;nan;100908.25;4978517;28;97163;-72
2021/01/06 03:45:05;;;;;;;4.47;4.18;;;;;;;11.55;nan;100897.66;4980814;28;98092;-71
2021/01/06 03:47:34;;;;;;;4.05;3.85;;;;;;;11.50;nan;100897.41;4961879;28;97700;-71
2021/01/06 03:50:05;;;;;;;4.47;4.15;;;;;;;11.48;nan;100901.69;4962037;28;99559;-70
2021/01/06 03:52:51;;;;;;;3.90;3.63;;;;;;;11.47;nan;100905.16;4945031;28;97504;-71
2021/01/06 03:55:26;;;;;;;3.83;3.53;;;;;;;11.48;nan;100901.69;4978893;28;97037;-72
2021/01/06 03:57:56;;;;;;;3.55;3.35;;;;;;;11.45;nan;100906.81;4979078;28;98172;-71
2021/01/06 04:00:35;;;;;;;4.70;4.40;;;;;;;11.41;nan;100899.56;4978005;28;97798;-71
2021/01/06 04:03:06;;;;;;;3.75;3.55;;;;;;;11.36;nan;100893.19;4960832;28;97341;-71
2021/01/06 04:05:35;;;;;;;4.28;3.83;;;;;;;11.35;nan;100899.25;4962102;28;97727;-71
2021/01/06 04:08:03;;;;;;;3.25;3.15;;;;;;;11.36;nan;100885.28;4961741;28;99436;-71
2021/01/06 04:10:34;;;;;;;4.50;4.07;;;;;;;11.37;nan;100892.34;4979175;28;97697;-70
2021/01/06 04:13:02;;;;;;;3.72;3.42;;;;;;;11.42;nan;100896.13;4978407;28;96948;-70
2021/01/06 04:15:30;;;;;;;4.07;3.78;;;;;;;11.42;nan;100880.34;4962213;28;96915;-70
2021/01/06 04:17:57;;;;;;;3.97;3.75;;;;;;;11.40;nan;100887.25;4979223;28;97771;-70
2021/01/06 04:20:30;;;;;;;4.00;3.70;;;;;;;11.39;nan;100885.44;4961484;28;99074;-70
2021/01/06 04:23:00;;;;;;;4.00;3.70;;;;;;;11.39;nan;100884.53;4978265;28;97149;-70
2021/01/06 04:25:29;;;;;;;4.20;4.00;;;;;;;11.35;nan;100880.84;4979788;28;97432;-73
2021/01/06 04:28:00;;;;;;;4.00;3.70;;;;;;;11.38;nan;100872.22;4979169;28;99302;-71
2021/01/06 04:30:49;;;;;;;4.13;3.83;;;;;;;11.37;nan;100881.81;4979088;28;98048;-70
2021/01/06 04:33:20;;;;;;;4.70;4.40;;;;;;;11.36;nan;100880.03;4964631;28;97512;-69
2021/01/06 04:35:49;;;;;;;3.88;3.58;;;;;;;11.37;nan;100873.06;4983830;28;97265;-69
2021/01/06 04:38:19;;;;;;;4.22;3.92;;;;;;;11.29;nan;100877.91;4982470;28;98110;-70
2021/01/06 04:40:49;;;;;;;4.47;3.88;;;;;;;11.25;nan;100870.69;4981503;28;98972;-69
2021/01/06 04:43:24;;;;;;;4.05;3.75;;;;;;;11.24;nan;100874.13;4983283;28;98073;-70
2021/01/06 04:46:03;;;;;;;5.05;4.57;;;;;;;11.23;nan;100872.34;4981384;28;97827;-73
2021/01/06 04:48:41;;;;;;;14.90;8.35;;;;;;;11.22;nan;100873.16;4949629;28;99927;-71
2021/01/06 04:51:35;;;;;;;4.75;4.35;;;;;;;11.23;nan;100861.81;4965540;28;99334;-70
2021/01/06 04:54:15;;;;;;;3.88;3.58;;;;;;;11.20;nan;100856.41;4963607;28;97966;-70
2021/01/06 04:56:57;;;;;;;3.92;3.47;;;;;;;11.17;nan;100858.84;4983502;28;97573;-71
2021/01/06 04:59:38;;;;;;;4.82;4.43;;;;;;;11.16;nan;100864.94;4981999;28;97879;-71
2021/01/06 05:02:20;;;;;;;34.50;13.25;;;;;;;11.17;nan;100861.50;4973871;28;98105;-71
2021/01/06 05:05:21;;;;;;;7.82;5.88;;;;;;;11.17;nan;100857.13;4947593;28;97818;-70
2021/01/06 05:08:06;;;;;;;4.10;3.90;;;;;;;11.14;nan;100853.44;4949323;28;97631;-70
2021/01/06 05:10:36;;;;;;;4.40;4.00;;;;;;;11.14;nan;100861.34;4962628;28;97873;-68
2021/01/06 05:13:12;;;;;;;3.97;3.75;;;;;;;11.13;nan;100857.78;4948450;28;99886;-70
2021/01/06 05:15:43;;;;;;;4.13;3.83;;;;;;;11.06;nan;100854.75;4982338;28;97597;-69
2021/01/06 05:18:12;;;;;;;3.78;3.58;;;;;;;11.03;nan;100858.16;4947963;28;97171;-69
2021/01/06 05:20:39;;;;;;;3.97;3.78;;;;;;;11.01;nan;100853.63;4978522;28;98054;-69
2021/01/06 05:23:15;;;;;;;4.80;4.50;;;;;;;11.06;nan;100847.78;4981269;28;98074;-71
2021/01/06 05:25:43;;;;;;;4.68;4.38;;;;;;;11.08;nan;100850.50;4982733;28;96805;-70
2021/01/06 05:28:14;;;;;;;3.85;3.65;;;;;;;11.09;nan;100852.31;4962263;28;97371;-70
2021/01/06 05:30:53;;;;;;;3.80;3.60;;;;;;;11.10;nan;100844.50;4964500;28;98251;-72
2021/01/06 05:33:24;;;;;;;15.77;8.52;;;;;;;11.09;nan;100849.69;4964531;28;99990;-71
2021/01/06 05:35:52;;;;;;;7.88;5.90;;;;;;;11.09;nan;100847.06;4983215;28;97214;-70
2021/01/06 05:38:20;;;;;;;3.88;3.67;;;;;;;11.11;nan;100848.94;4981726;28;97883;-71
2021/01/06 05:40:48;;;;;;;4.07;3.88;;;;;;;11.09;nan;100844.44;4963163;28;97850;-71
2021/01/06 05:43:39;;;;;;;5.28;4.78;;;;;;;11.17;nan;100838.75;4980731;28;97779;-72
2021/01/06 05:46:12;;;;;;;5.10;4.80;;;;;;;11.21;nan;100837.16;4980500;28;97538;-71
2021/01/06 05:48:42;;;;;;;4.22;3.92;;;;;;;11.14;nan;100840.31;4964355;28;97720;-72
2021/01/06 05:51:17;;;;;;;3.80;3.60;;;;;;;11.10;nan;100839.25;4964111;28;98537;-72
2021/01/06 05:53:46;;;;;;;4.25;3.95;;;;;;;11.07;nan;100840.81;4980919;28;99602;-72
2021/01/06 05:56:36;;;;;;;4.32;4.03;;;;;;;10.98;nan;100828.06;4980331;28;97936;-72
2021/01/06 05:59:16;;;;;;;3.50;3.40;;;;;;;10.94;nan;100828.78;4963502;28;96750;-69
2021/01/06 06:01:46;;;;;;;3.70;3.50;;;;;;;10.92;nan;100825.16;4963341;28;97932;-70
2021/01/06 06:04:30;;;;;;;3.95;3.72;;;;;;;10.93;nan;100831.31;4964020;28;100162;-72
2021/01/06 06:07:25;;;;;;;3.20;3.10;;;;;;;10.88;nan;100822.28;4963918;28;98471;-70
2021/01/06 06:10:19;;;;;;;5.45;4.15;;;;;;;10.87;nan;100817.84;4963899;28;97514;-72
2021/01/06 06:12:58;;;;;;;4.80;4.40;;;;;;;10.84;nan;100817.66;4962145;28;97498;-70
2021/01/06 06:16:15;;;;;;;3.97;3.78;;;;;;;10.84;nan;100820.28;4963550;28;97922;-72
2021/01/06 06:18:58;;;;;;;4.00;3.80;;;;;;;10.82;nan;100811.47;4980751;28;97884;-71
2021/01/06 06:21:40;;;;;;;4.10;3.83;;;;;;;10.83;nan;100818.50;4981571;28;97053;-71
2021/01/06 06:24:20;;;;;;;3.95;3.75;;;;;;;10.84;nan;100812.41;4962995;28;99036;-71
2021/01/06 06:26:58;;;;;;;15.40;8.93;;;;;;;10.81;nan;100818.44;4963493;28;101230;-71
2021/01/06 06:29:31;;;;;;;5.97;5.45;;;;;;;10.83;nan;100821.13;4980385;28;98004;-70
2021/01/06 06:31:59;;;;;;;3.88;3.67;;;;;;;10.85;nan;100812.53;4981380;28;97865;-71
2021/01/06 06:34:29;;;;;;;4.45;4.18;;;;;;;10.85;nan;100814.25;4979831;28;100204;-72
2021/01/06 06:37:12;;;;;;;5.18;4.75;;;;;;;10.82;nan;100814.97;4981119;28;99138;-71
2021/01/06 06:39:43;;;;;;;5.28;4.88;;;;;;;10.77;nan;100819.09;4980633;28;97680;-70
2021/01/06 06:42:17;;;;;;;4.78;4.53;;;;;;;10.72;nan;100823.19;4980250;28;97774;-70
2021/01/06 06:44:53;;;;;;;4.30;4.00;;;;;;;10.67;nan;100819.44;4981557;28;99218;-69
2021/01/06 06:47:22;;;;;;;4.93;4.53;;;;;;;10.63;nan;100821.81;4960747;28;98544;-71
2021/01/06 06:50:15;;;;;;;4.50;4.10;;;;;;;10.55;nan;100828.34;4946208;28;96933;-68
2021/01/06 06:52:49;;;;;;;3.78;3.58;;;;;;;10.51;nan;100824.66;4980680;28;97921;-71
2021/01/06 06:55:28;;;;;;;4.30;3.92;;;;;;;10.49;nan;100828.94;4977842;28;99252;-71
2021/01/06 06:58:04;;;;;;;5.00;4.60;;;;;;;10.47;nan;100825.34;4979417;28;99611;-71
2021/01/06 07:00:36;;;;;;;4.20;3.90;;;;;;;10.46;nan;100823.53;4962740;28;97346;-71
2021/01/06 07:03:06;;;;;;;4.60;4.30;;;;;;;10.45;nan;100823.44;4979519;28;97464;-69
2021/01/06 07:05:37;;;;;;;5.18;4.78;;;;;;;10.46;nan;100827.88;4959721;28;98004;-74
2021/01/06 07:08:09;;;;;;;4.75;4.35;;;;;;;10.49;nan;100823.69;4979425;28;97883;-71
2021/01/06 07:10:42;;;;;;;4.40;4.10;;;;;;;10.44;nan;100840.91;4980324;28;98038;-71
2021/01/06 07:13:16;;;;;;;4.82;4.43;;;;;;;10.40;nan;100831.06;4961525;28;97287;-70
2021/01/06 07:15:49;;;;;;;4.30;4.00;;;;;;;10.43;nan;100838.22;4960951;28;100331;-69
2021/01/06 07:18:46;;;;;;;4.38;4.07;;;;;;;10.43;nan;100843.47;4962429;28;99072;-72
2021/01/06 07:21:21;;;;;;;4.32;4.03;;;;;;;10.42;nan;100839.94;4946064;28;97411;-72
2021/01/06 07:23:54;;;;;;;4.43;4.13;;;;;;;10.44;nan;100834.78;4980296;28;97343;-72
2021/01/06 07:26:26;;;;;;;5.07;4.75;;;;;;;10.36;nan;100830.81;4979234;28;96820;-72
2021/01/06 07:29:14;;;;;;;5.32;4.93;;;;;;;10.35;nan;100834.25;4979440;28;98060;-70
2021/01/06 07:31:52;;;;;;;4.63;4.32;;;;;;;10.35;nan;100840.41;4979098;28;97959;-71
2021/01/06 07:34:24;;;;;;;5.25;4.85;;;;;;;10.32;nan;100832.38;4949710;28;97267;-71
2021/01/06 07:36:54;;;;;;;5.20;4.70;;;;;;;10.30;nan;100833.09;4979859;28;97235;-72
2021/01/06 07:39:26;;;;;;;5.00;4.60;;;;;;;10.41;nan;100834.59;4961701;28;99048;-69
2021/01/06 07:41:54;;;;;;;4.43;4.03;;;;;;;10.40;nan;100835.44;4979604;28;96942;-70
2021/01/06 07:44:26;;;;;;;4.32;4.03;;;;;;;10.41;nan;100835.50;4980172;28;98273;-70
2021/01/06 07:47:03;;;;;;;4.50;4.28;;;;;;;10.38;nan;100832.72;4978716;28;99584;-70
2021/01/06 07:49:52;;;;;;;4.78;4.10;;;;;;;10.40;nan;100832.81;4975937;28;97472;-70
2021/01/06 07:52:45;;;;;;;4.70;4.40;;;;;;;10.41;nan;100832.88;4959908;28;97827;-71
2021/01/06 07:55:21;;;;;;;11.93;8.75;;;;;;;10.40;nan;100838.06;4971157;28;97270;-69
2021/01/06 07:57:50;;;;;;;7.10;5.70;;;;;;;10.37;nan;100835.25;4977711;28;100697;-72
2021/01/06 08:00:27;;;;;;;5.47;5.18;;;;;;;10.38;nan;100837.06;4974224;28;97598;-71
2021/01/06 08:03:03;;;;;;;5.03;4.72;;;;;;;10.39;nan;100831.91;4961157;28;97719;-71
2021/01/06 08:05:33;;;;;;;4.60;4.20;;;;;;;10.38;nan;100823.94;4960366;28;97000;-71
2021/01/06 08:08:07;;;;;;;5.38;4.97;;;;;;;10.49;nan;100833.31;4979121;28;98554;-71
2021/01/06 08:10:37;;;;;;;4.30;4.00;;;;;;;10.43;nan;100832.97;4961232;28;97922;-71
2021/01/06 08:13:16;;;;;;;4.22;3.92;;;;;;;10.43;nan;100828.63;4977656;28;97542;-71
2021/01/06 08:15:46;;;;;;;3.75;3.55;;;;;;;10.46;nan;100839.28;4980352;28;97375;-71
2021/01/06 08:18:28;;;;;;;4.45;4.13;;;;;;;10.42;nan;100841.69;4979581;28;98338;-69
2021/01/06 08:21:23;;;;;;;4.30;4.05;;;;;;;10.37;nan;100838.78;4962738;28;97228;-70
2021/01/06 08:24:08;;;;;;;4.53;4.22;;;;;;;10.32;nan;100845.50;4978339;28;97831;-71
2021/01/06 08:26:45;;;;;;;4.78;4.47;;;;;;;10.32;nan;100835.00;4979620;28;97986;-71
2021/01/06 08:29:17;;;;;;;4.47;4.22;;;;;;;10.37;nan;100832.63;4978756;28;97032;-70
2021/01/06 08:31:46;;;;;;;6.38;5.25;;;;;;;10.40;nan;100836.31;4979388;28;97929;-71
2021/01/06 08:34:22;;;;;;;6.22;5.75;;;;;;;10.42;nan;100825.91;4962382;28;97786;-70
2021/01/06 08:36:56;;;;;;;4.55;4.18;;;;;;;10.39;nan;100833.59;4960134;28;97314;-72
2021/01/06 08:39:25;;;;;;;4.30;4.10;;;;;;;10.33;nan;100826.28;4977091;28;99011;-72
2021/01/06 08:41:56;;;;;;;4.28;4.07;;;;;;;10.27;nan;100825.06;4977825;28;97877;-72
2021/01/06 08:44:38;;;;;;;4.35;4.05;;;;;;;10.24;nan;100828.41;4959048;28;96902;-71
2021/01/06 08:47:07;;;;;;;4.25;4.03;;;;;;;10.29;nan;100831.31;4976790;28;97428;-71
2021/01/06 08:49:36;;;;;;;4.15;3.83;;;;;;;10.35;nan;100826.38;4976988;28;98073;-70
2021/01/06 08:52:27;;;;;;;4.10;3.90;;;;;;;10.36;nan;100833.44;4979427;28;98295;-70
2021/01/06 08:55:19;;;;;;;5.35;3.95;;;;;;;10.33;nan;100841.16;4970776;28;97723;-70
2021/01/06 08:57:57;;;;;;;4.25;4.05;;;;;;;10.35;nan;100842.13;4960665;28;97211;-70
2021/01/06 09:00:28;;;;;;;6.57;5.78;;;;;;;10.36;nan;100842.25;4961258;28;99911;-70
2021/01/06 09:02:58;;;;;;;8.05;7.00;;;;;;;10.41;nan;100846.00;4978607;28;99170;-71
2021/01/06 09:05:44;;;;;;;4.03;3.83;;;;;;;10.45;nan;100841.84;4966819;28;97396;-70
2021/01/06 09:08:14;;;;;;;3.80;3.60;;;;;;;10.51;nan;100844.78;4978553;28;97265;-70
2021/01/06 09:10:49;;;;;;;4.53;4.25;;;;;;;10.50;nan;100840.34;4979107;28;98892;-71
2021/01/06 09:13:21;;;;;;;3.63;3.47;;;;;;;10.50;nan;100836.00;4979624;28;97722;-71
2021/01/06 09:16:13;;;;;;;3.65;3.45;;;;;;;10.46;nan;100843.63;4979607;28;97872;-71
2021/01/06 09:18:44;;;;;;;4.50;4.20;;;;;;;10.52;nan;100837.00;4979017;28;97669;-71
2021/01/06 09:21:20;;;;;;;3.80;3.60;;;;;;;10.50;nan;100829.84;4963803;28;99007;-72
2021/01/06 09:23:51;;;;;;;4.20;4.00;;;;;;;10.49;nan;100833.31;4983790;28;97996;-70
2021/01/06 09:26:22;;;;;;;4.13;3.92;;;;;;;10.53;nan;100830.03;4981948;28;97273;-71
2021/01/06 09:28:59;;;;;;;32.15;16.38;;;;;;;10.58;nan;100828.53;4980530;28;97527;-71
2021/01/06 09:31:28;;;;;;;9.23;7.22;;;;;;;10.63;nan;100827.97;4963714;28;98126;-70
2021/01/06 09:33:57;;;;;;;4.15;3.72;;;;;;;10.67;nan;100836.91;4982760;28;98051;-71
2021/01/06 09:36:26;;;;;;;3.47;3.38;;;;;;;10.67;nan;100829.94;4981873;28;97826;-71
2021/01/06 09:38:54;;;;;;;3.95;3.75;;;;;;;10.68;nan;100837.00;4977904;28;97337;-71
2021/01/06 09:41:25;;;;;;;16.95;10.93;;;;;;;10.67;nan;100835.19;4964285;28;96904;-70
2021/01/06 09:43:57;;;;;;;5.82;5.32;;;;;;;10.65;nan;100826.34;4950022;28;97471;-71
2021/01/06 09:46:33;;;;;;;3.50;3.40;;;;;;;10.63;nan;100835.84;4979057;28;97404;-71
2021/01/06 09:49:05;;;;;;;3.42;3.33;;;;;;;10.59;nan;100832.97;4978895;28;97627;-71
2021/01/06 09:51:33;;;;;;;3.67;3.58;;;;;;;10.56;nan;100827.56;4981437;28;98097;-71
2021/01/06 09:54:04;;;;;;;3.65;3.45;;;;;;;10.56;nan;100830.19;4982067;28;98059;-71
2021/01/06 09:56:34;;;;;;;3.60;3.40;;;;;;;10.58;nan;100823.28;4982008;28;97135;-70
2021/01/06 09:59:05;;;;;;;3.88;3.60;;;;;;;10.57;nan;100825.00;4972107;28;97075;-70
2021/01/06 10:01:37;;;;;;;3.63;3.42;;;;;;;10.58;nan;100828.53;4960706;28;100353;-70
2021/01/06 10:04:14;;;;;;;3.45;3.35;;;;;;;10.55;nan;100821.38;4960771;28;97485;-71
2021/01/06 10:06:48;;;;;;;5.70;5.18;;;;;;;10.61;nan;100823.44;4954912;28;98011;-70
2021/01/06 10:09:24;;;;;;;5.78;4.65;;;;;;;10.61;nan;100819.09;4980756;28;97742;-72
2021/01/06 10:12:22;;;;;;;3.35;3.25;;;;;;;10.62;nan;100815.63;4962197;28;97710;-71
2021/01/06 10:15:07;;;;;;;3.40;3.30;;;;;;;10.61;nan;100816.47;4974434;28;96781;-72
2021/01/06 10:17:38;;;;;;;3.35;3.25;;;;;;;10.59;nan;100811.94;4978760;28;96874;-71
2021/01/06 10:20:13;;;;;;;3.33;3.22;;;;;;;10.54;nan;100809.09;4980820;28;97321;-72
2021/01/06 10:22:45;;;;;;;3.20;3.10;;;;;;;10.48;nan;100810.47;4962052;28;98996;-70
2021/01/06 10:25:27;;;;;;;3.17;3.08;;;;;;;10.47;nan;100804.34;4980707;28;97699;-71
2021/01/06 10:28:00;;;;;;;3.47;3.28;;;;;;;10.52;nan;100801.94;4945920;28;97794;-71
2021/01/06 10:30:31;;;;;;;3.65;3.47;;;;;;;10.54;nan;100798.59;4961986;28;97184;-71
2021/01/06 10:33:09;;;;;;;4.10;3.90;;;;;;;10.58;nan;100802.28;4977378;28;97922;-70
2021/01/06 10:35:43;;;;;;;4.97;4.32;;;;;;;10.65;nan;100786.94;4961052;28;97979;-70
2021/01/06 10:38:21;;;;;;;11.43;7.50;;;;;;;10.70;nan;100793.31;4961932;28;97671;-70
2021/01/06 10:40:50;;;;;;;5.00;4.60;;;;;;;10.73;nan;100787.34;4945523;28;97576;-71
2021/01/06 10:43:35;;;;;;;3.88;3.70;;;;;;;10.75;nan;100785.66;4962293;28;97746;-71
2021/01/06 10:46:47;;;;;;;3.35;3.25;;;;;;;10.64;nan;100781.56;4960915;28;97422;-72
2021/01/06 10:49:51;;;;;;;3.00;3.00;;;;;;;10.55;nan;100767.94;4957723;28;98350;-71
2021/01/06 10:52:49;;;;;;;3.38;3.28;;;;;;;10.52;nan;100767.81;4961817;28;99297;-71
2021/01/06 10:55:49;;;;;;;2.97;2.88;;;;;;;10.59;nan;100764.66;4976741;28;99353;-72
2021/01/06 10:58:35;;;;;;;7.75;6.18;;;;;;;10.56;nan;100756.63;4960334;28;100851;-71
2021/01/06 11:01:17;;;;;;;4.47;4.18;;;;;;;10.60;nan;100761.25;4978556;28;97176;-71
2021/01/06 11:04:07;;;;;;;3.88;3.67;;;;;;;10.67;nan;100758.09;4961204;28;97611;-72
2021/01/06 11:06:46;;;;;;;3.40;3.30;;;;;;;10.67;nan;100759.00;4975504;28;97427;-71
2021/01/06 11:09:37;;;;;;;3.20;3.10;;;;;;;10.66;nan;100758.91;4973790;28;98312;-73
2021/01/06 11:12:30;;;;;;;3.55;3.42;;;;;;;10.67;nan;100748.50;4977915;28;98154;-71
2021/01/06 11:15:29;;;;;;;3.42;3.22;;;;;;;10.64;nan;100750.94;4978373;28;97090;-70
2021/01/06 11:18:15;;;;;;;3.00;2.90;;;;;;;10.53;nan;100741.59;4945508;28;97976;-73
2021/01/06 11:20:45;;;;;;;3.45;3.30;;;;;;;10.48;nan;100747.44;4978216;28;99545;-71
2021/01/06 11:23:36;;;;;;;3.90;3.70;;;;;;;10.34;nan;100743.19;4979076;28;96808;-72
2021/01/06 11:26:40;;;;;;;3.17;3.10;;;;;;;10.28;nan;100745.47;4980501;28;97857;-71
2021/01/06 11:29:14;;;;;;;3.28;3.17;;;;;;;10.23;nan;100729.50;4977027;28;98238;-71
2021/01/06 11:31:43;;;;;;;3.60;3.42;;;;;;;10.19;nan;100738.03;4979326;28;97549;-72
2021/01/06 11:34:28;;;;;;;3.28;3.17;;;;;;;10.18;nan;100737.13;4979266;28;96906;-70
2021/01/06 11:36:58;;;;;;;3.25;3.15;;;;;;;10.16;nan;100730.88;4980382;28;98055;-73
2021/01/06 11:39:45;;;;;;;3.67;3.55;;;;;;;10.13;nan;100732.44;4973992;28;98942;-71
2021/01/06 11:42:14;;;;;;;3.58;3.47;;;;;;;10.08;nan;100733.88;4978836;28;98808;-73
2021/01/06 11:44:45;;;;;;;4.13;3.92;;;;;;;10.04;nan;100724.94;4979048;28;97678;-70
2021/01/06 11:47:31;;;;;;;3.53;3.40;;;;;;;10.05;nan;100724.13;4977943;28;99018;-71
2021/01/06 11:50:08;;;;;;;3.60;3.50;;;;;;;10.01;nan;100730.03;4947386;28;97947;-72
2021/01/06 11:52:44;;;;;;;4.07;3.90;;;;;;;10.01;nan;100727.41;4975704;28;99184;-72
2021/01/06 11:55:37;;;;;;;4.15;4.00;;;;;;;10.04;nan;100713.53;4974856;28;96981;-74
2021/01/06 11:58:25;;;;;;;3.70;3.60;;;;;;;9.93;nan;100707.72;4978560;28;97214;-73
2021/01/06 12:01:09;;;;;;;3.75;3.65;;;;;;;9.83;nan;100708.06;4976001;28;98474;-71
2021/01/06 12:04:00;;;;;;;4.05;3.88;;;;;;;9.85;nan;100710.75;4959691;28;98440;-72
2021/01/06 12:06:53;;;;;;;3.70;3.60;;;;;;;9.82;nan;100703.59;4975478;28;97765;-71
2021/01/06 12:09:36;;;;;;;3.58;3.47;;;;;;;9.87;nan;100702.13;4976751;28;97301;-72
2021/01/06 12:12:19;;;;;;;3.78;3.58;;;;;;;9.85;nan;100688.03;4978040;28;98072;-71
2021/01/06 12:14:51;;;;;;;3.53;3.42;;;;;;;9.78;nan;100691.13;4978527;28;98124;-71
2021/01/06 12:17:23;;;;;;;3.70;3.50;;;;;;;9.75;nan;100697.94;4961902;28;97126;-70
2021/01/06 12:19:59;;;;;;;4.05;3.90;;;;;;;9.75;nan;100690.97;4979848;28;96995;-71